Time;durP1;ratioP1;P1;durP2;ratioP2;P2;SDS_P1;SDS_P2;PMS_P1;PMS_P2;Temp;Humidity;BMP_temperature;BMP_pressure;BME280_temperature;BME280_humidity;BME280_pressure;Samples;Min_cycle;Max_cycle;Signal;HPM_P1;HPM_P2
2022/01/11 00:00:51;;;;;;;79.20;19.57;;;-0.50;99.90;;;;;;4983060;28;20237;-76
2022/01/11 00:03:18;;;;;;;71.87;19.40;;;-0.50;99.90;;;;;;4980680;28;20689;-76
2022/01/11 00:08:14;;;;;;;93.87;20.33;;;-0.50;99.90;;;;;;4982712;28;20728;-75
2022/01/11 00:10:53;;;;;;;64.00;18.83;;;-0.50;99.90;;;;;;4984392;28;20330;-76
2022/01/11 00:13:22;;;;;;;74.87;18.90;;;-0.50;99.90;;;;;;4996688;28;20204;-75
2022/01/11 00:15:48;;;;;;;79.10;20.97;;;-0.60;99.90;;;;;;4981757;28;20277;-75
2022/01/11 00:18:15;;;;;;;74.03;20.93;;;-0.50;99.90;;;;;;4985764;28;20219;-76
2022/01/11 00:20:42;;;;;;;81.80;21.20;;;-0.50;99.90;;;;;;4985357;28;20680;-76
2022/01/11 00:25:41;;;;;;;113.10;20.43;;;-0.50;99.90;;;;;;4983455;28;20222;-76
2022/01/11 00:28:09;;;;;;;75.67;18.93;;;-0.50;99.90;;;;;;4981086;28;20214;-77
2022/01/11 00:30:39;;;;;;;74.80;19.50;;;-0.60;99.90;;;;;;4977429;28;20300;-77
2022/01/11 00:33:08;;;;;;;74.30;18.80;;;-0.60;99.90;;;;;;4980549;28;20329;-77
2022/01/11 00:36:18;;;;;;;65.93;18.33;;;-0.60;99.90;;;;;;4983613;28;20214;-75
2022/01/11 00:38:36;;;;;;;64.47;18.40;;;-0.60;99.90;;;;;;4974965;28;20282;-77
2022/01/11 00:41:07;;;;;;;62.83;17.87;;;-0.60;99.90;;;;;;4975654;28;20503;-77
2022/01/11 00:43:35;;;;;;;72.80;19.13;;;-0.60;99.90;;;;;;4978148;28;20308;-76
2022/01/11 00:46:06;;;;;;;70.80;20.43;;;-0.60;99.90;;;;;;4983265;28;20581;-75
2022/01/11 00:48:35;;;;;;;63.07;19.40;;;-0.60;99.90;;;;;;4983977;28;21046;-76
2022/01/11 00:51:02;;;;;;;66.70;19.87;;;-0.70;99.90;;;;;;4981517;28;20233;-75
2022/01/11 00:53:29;;;;;;;73.97;19.40;;;-0.60;99.90;;;;;;4978667;28;20202;-76
2022/01/11 00:55:56;;;;;;;68.87;20.20;;;-0.60;99.90;;;;;;4977391;28;20243;-77
2022/01/11 00:58:23;;;;;;;66.27;19.57;;;-0.60;99.90;;;;;;4973389;28;20223;-76
2022/01/11 01:00:50;;;;;;;84.00;21.70;;;-0.60;99.90;;;;;;4973810;28;20208;-76
2022/01/11 01:03:17;;;;;;;59.57;19.77;;;-0.60;99.90;;;;;;4974309;28;20224;-76
2022/01/11 01:05:46;;;;;;;91.73;20.40;;;-0.60;99.90;;;;;;4979168;28;20268;-77
2022/01/11 01:08:13;;;;;;;73.13;20.43;;;-0.50;99.90;;;;;;4975582;28;20618;-75
2022/01/11 01:10:46;;;;;;;80.57;20.90;;;-0.50;99.90;;;;;;4973710;28;20288;-77
2022/01/11 01:13:17;;;;;;;96.80;20.87;;;-0.50;99.90;;;;;;4976971;28;20711;-77
2022/01/11 01:15:49;;;;;;;74.23;21.47;;;-0.50;99.90;;;;;;4972065;28;20733;-77
2022/01/11 01:18:22;;;;;;;86.10;20.87;;;-0.50;99.90;;;;;;4970507;28;20240;-77
2022/01/11 01:20:50;;;;;;;90.27;20.37;;;-0.50;99.90;;;;;;4976512;28;20300;-77
2022/01/11 01:23:18;;;;;;;76.07;20.17;;;-0.50;99.90;;;;;;4970034;28;20667;-76
2022/01/11 01:25:45;;;;;;;102.83;22.03;;;-0.40;99.90;;;;;;4970731;28;20221;-76
2022/01/11 01:28:13;;;;;;;102.93;21.40;;;-0.40;99.90;;;;;;4973565;28;20215;-77
2022/01/11 01:30:40;;;;;;;84.50;20.17;;;-0.40;99.90;;;;;;4975643;28;20300;-76
2022/01/11 01:33:07;;;;;;;87.37;22.73;;;-0.40;99.90;;;;;;4973654;28;20707;-77
2022/01/11 01:35:39;;;;;;;105.53;21.23;;;-0.40;99.90;;;;;;4975921;28;20211;-76
2022/01/11 01:38:08;;;;;;;84.87;21.60;;;-0.30;99.90;;;;;;4971084;28;20752;-77
2022/01/11 01:40:40;;;;;;;76.87;20.83;;;-0.30;99.90;;;;;;4978010;28;20348;-76
2022/01/11 01:43:09;;;;;;;114.27;22.87;;;-0.30;99.90;;;;;;4976028;28;20238;-76
2022/01/11 01:45:37;;;;;;;88.40;21.33;;;-0.30;99.90;;;;;;4978754;28;20642;-77
2022/01/11 01:48:06;;;;;;;67.80;20.53;;;-0.20;99.90;;;;;;4975916;28;20229;-77
2022/01/11 01:50:34;;;;;;;129.37;22.87;;;-0.20;99.90;;;;;;4974413;28;20204;-76
2022/01/11 01:53:04;;;;;;;96.93;22.07;;;-0.20;99.90;;;;;;4975024;28;20237;-76
2022/01/11 01:55:31;;;;;;;107.07;22.43;;;-0.30;99.90;;;;;;4976370;28;20648;-77
2022/01/11 01:57:58;;;;;;;99.30;21.93;;;-0.30;99.90;;;;;;4970992;28;20554;-75
2022/01/11 02:00:28;;;;;;;136.23;22.93;;;-0.30;99.90;;;;;;4974346;28;20212;-75
2022/01/11 02:03:08;;;;;;;101.43;22.93;;;-0.30;99.90;;;;;;4975931;28;20639;-75
2022/01/11 02:05:35;;;;;;;73.37;19.63;;;-0.30;99.90;;;;;;4972997;28;20290;-76
2022/01/11 02:08:02;;;;;;;139.50;23.30;;;-0.30;99.90;;;;;;4970949;28;20541;-75
2022/01/11 02:10:29;;;;;;;94.40;21.67;;;-0.30;99.90;;;;;;4978353;28;20213;-76
2022/01/11 02:12:57;;;;;;;72.13;21.10;;;-0.30;99.90;;;;;;4970665;28;20268;-77
2022/01/11 02:15:24;;;;;;;82.77;21.23;;;-0.30;99.90;;;;;;4968386;28;20241;-75
2022/01/11 02:17:51;;;;;;;98.47;21.30;;;-0.30;99.90;;;;;;4974936;28;20255;-76
2022/01/11 02:20:18;;;;;;;94.93;21.10;;;-0.30;99.90;;;;;;4975468;28;20219;-77
2022/01/11 02:22:45;;;;;;;94.10;24.37;;;-0.30;99.90;;;;;;4970353;28;20781;-76
2022/01/11 02:25:12;;;;;;;92.17;22.17;;;-0.30;99.90;;;;;;4975915;28;20215;-76
2022/01/11 02:27:38;;;;;;;93.63;23.60;;;-0.30;99.90;;;;;;4975934;28;20219;-76
2022/01/11 02:30:06;;;;;;;121.57;24.50;;;-0.40;99.90;;;;;;4976181;28;20541;-77
2022/01/11 02:32:32;;;;;;;98.23;27.07;;;-0.40;99.90;;;;;;4972388;28;20275;-76
2022/01/11 02:34:59;;;;;;;95.30;25.67;;;-0.40;99.90;;;;;;4976963;28;20697;-76
2022/01/11 02:37:26;;;;;;;94.93;22.57;;;-0.40;99.90;;;;;;4976354;28;20296;-76
2022/01/11 02:39:53;;;;;;;108.97;23.20;;;-0.30;99.90;;;;;;4972627;28;20566;-77
2022/01/11 02:42:19;;;;;;;94.93;24.70;;;-0.30;99.90;;;;;;4974249;28;20248;-77
2022/01/11 02:44:46;;;;;;;118.50;25.70;;;-0.30;99.90;;;;;;4975032;28;20209;-77
2022/01/11 02:47:13;;;;;;;105.27;24.90;;;-0.30;99.90;;;;;;4976633;28;20225;-77
2022/01/11 02:49:40;;;;;;;99.63;24.80;;;-0.30;99.90;;;;;;4954260;28;20672;-77
2022/01/11 02:52:07;;;;;;;108.47;27.40;;;-0.20;99.90;;;;;;4972140;28;20214;-77
2022/01/11 02:54:33;;;;;;;102.00;24.93;;;-0.20;99.90;;;;;;4970011;28;20611;-77
2022/01/11 02:57:00;;;;;;;95.10;25.57;;;-0.20;99.90;;;;;;4969940;28;20215;-76
2022/01/11 02:59:27;;;;;;;91.90;25.77;;;-0.20;99.90;;;;;;4971176;28;20234;-76
2022/01/11 03:01:54;;;;;;;104.87;27.57;;;-0.20;99.90;;;;;;4973447;28;20382;-76
2022/01/11 03:04:21;;;;;;;99.60;27.07;;;-0.10;99.90;;;;;;4972327;28;20531;-76
2022/01/11 03:06:48;;;;;;;106.53;26.97;;;-0.10;99.90;;;;;;4971257;28;20211;-75
2022/01/11 03:09:15;;;;;;;95.40;25.30;;;-0.10;99.90;;;;;;4972363;28;20218;-76
2022/01/11 03:11:42;;;;;;;94.23;26.27;;;-0.10;99.90;;;;;;4972035;28;20807;-76
2022/01/11 03:14:09;;;;;;;96.33;25.43;;;0.00;99.90;;;;;;4969739;28;20336;-76
2022/01/11 03:16:35;;;;;;;106.47;28.00;;;0.00;99.90;;;;;;4977530;28;20735;-76
2022/01/11 03:19:02;;;;;;;109.27;26.57;;;0.00;99.90;;;;;;4969763;28;20218;-76
2022/01/11 03:21:30;;;;;;;128.33;27.97;;;0.00;99.90;;;;;;4976691;28;20220;-76
2022/01/11 03:23:57;;;;;;;116.67;26.37;;;0.10;99.90;;;;;;4971011;28;20550;-76
2022/01/11 03:26:24;;;;;;;131.83;28.97;;;0.10;99.90;;;;;;4974858;28;20284;-77
2022/01/11 03:28:51;;;;;;;116.23;26.93;;;0.00;99.90;;;;;;4972778;28;20660;-76
2022/01/11 03:31:22;;;;;;;125.20;27.47;;;0.10;99.90;;;;;;4972366;28;20226;-75
2022/01/11 03:33:49;;;;;;;128.53;26.93;;;0.10;99.90;;;;;;4970483;28;20239;-76
2022/01/11 03:36:16;;;;;;;152.87;26.93;;;0.00;99.90;;;;;;4981992;28;20741;-75
2022/01/11 03:38:43;;;;;;;145.60;27.73;;;0.00;99.90;;;;;;4977757;28;20221;-76
2022/01/11 03:41:11;;;;;;;116.33;24.87;;;0.10;99.90;;;;;;4972692;28;20563;-76
2022/01/11 03:43:38;;;;;;;133.57;27.17;;;0.10;99.90;;;;;;4972373;28;20322;-76
2022/01/11 03:46:05;;;;;;;143.90;26.93;;;0.10;99.90;;;;;;4979276;28;20502;-77
2022/01/11 03:48:31;;;;;;;116.40;27.50;;;0.10;99.90;;;;;;4973040;28;20226;-75
2022/01/11 03:50:58;;;;;;;138.53;27.47;;;0.10;99.90;;;;;;4970838;28;20302;-76
2022/01/11 03:53:29;;;;;;;97.33;25.70;;;0.10;99.90;;;;;;4974349;28;20310;-76
2022/01/11 03:58:26;;;;;;;110.80;27.13;;;0.10;99.90;;;;;;4980554;28;20629;-75
2022/01/11 04:00:57;;;;;;;115.43;29.27;;;0.10;99.90;;;;;;4976431;28;20216;-76
2022/01/11 04:03:25;;;;;;;106.77;26.23;;;0.10;99.90;;;;;;4975494;28;20280;-76
2022/01/11 04:05:52;;;;;;;95.37;24.87;;;0.20;99.90;;;;;;4977441;28;20210;-76
2022/01/11 04:08:20;;;;;;;113.53;27.37;;;0.20;99.90;;;;;;4975786;28;20215;-76
2022/01/11 04:10:47;;;;;;;98.43;25.73;;;0.20;99.90;;;;;;4971697;28;20301;-76
2022/01/11 04:13:13;;;;;;;91.93;25.27;;;0.10;99.90;;;;;;4977400;28;20301;-76
2022/01/11 04:15:40;;;;;;;103.17;26.33;;;0.10;99.90;;;;;;4977707;28;20280;-75
2022/01/11 04:18:07;;;;;;;98.03;25.80;;;0.10;99.90;;;;;;4976435;28;20714;-76
2022/01/11 04:20:34;;;;;;;82.57;25.73;;;0.10;99.90;;;;;;4976495;28;20209;-76
2022/01/11 04:23:01;;;;;;;78.40;24.20;;;0.10;99.90;;;;;;4986575;28;20673;-75
2022/01/11 04:25:27;;;;;;;78.33;25.87;;;0.10;99.90;;;;;;4978931;28;20810;-75
2022/01/11 04:27:55;;;;;;;87.53;25.57;;;0.10;99.90;;;;;;4992138;28;21020;-75
2022/01/11 04:30:21;;;;;;;89.73;26.03;;;0.00;99.90;;;;;;4994368;28;20323;-77
2022/01/11 04:32:48;;;;;;;69.77;24.07;;;0.00;99.90;;;;;;4997394;28;20235;-76
2022/01/11 04:35:16;;;;;;;70.73;24.43;;;0.00;99.90;;;;;;4999168;28;20195;-75
2022/01/11 04:37:44;;;;;;;86.80;24.93;;;0.10;99.90;;;;;;4985194;28;20234;-76
2022/01/11 04:40:12;;;;;;;74.33;23.33;;;0.10;99.90;;;;;;4983957;28;20233;-76
2022/01/11 04:42:39;;;;;;;77.50;24.10;;;0.10;99.90;;;;;;4975563;28;20295;-76
2022/01/11 04:45:09;;;;;;;85.20;25.07;;;0.10;99.90;;;;;;4979468;28;20217;-76
2022/01/11 04:47:36;;;;;;;82.37;25.10;;;0.10;99.90;;;;;;4971254;28;20234;-77
2022/01/11 04:50:05;;;;;;;84.47;25.17;;;0.10;99.90;;;;;;4974221;28;20243;-75
2022/01/11 04:52:32;;;;;;;83.97;23.77;;;0.10;99.90;;;;;;4973590;28;20841;-76
2022/01/11 04:54:59;;;;;;;81.17;24.80;;;0.10;99.90;;;;;;4976816;28;20289;-76
2022/01/11 04:57:42;;;;;;;79.03;24.57;;;0.10;99.90;;;;;;4971780;28;20623;-75
2022/01/11 05:00:11;;;;;;;70.80;25.43;;;0.10;99.90;;;;;;4975756;28;20277;-75
2022/01/11 05:02:38;;;;;;;79.30;24.40;;;0.20;99.90;;;;;;4977010;28;20251;-76
2022/01/11 05:05:05;;;;;;;80.63;25.00;;;0.20;99.90;;;;;;4974961;28;20675;-76
2022/01/11 05:07:32;;;;;;;81.93;24.43;;;0.20;99.90;;;;;;4980029;28;20314;-76
2022/01/11 05:09:59;;;;;;;81.50;25.97;;;0.20;99.90;;;;;;4973535;28;20648;-76
2022/01/11 05:12:25;;;;;;;87.63;26.07;;;0.20;99.90;;;;;;4974443;28;20550;-75
2022/01/11 05:14:52;;;;;;;80.57;24.53;;;0.20;99.90;;;;;;4977686;28;20291;-76
2022/01/11 05:17:19;;;;;;;73.77;25.40;;;0.20;99.90;;;;;;4972237;28;20265;-76
2022/01/11 05:19:46;;;;;;;89.80;24.80;;;0.20;99.90;;;;;;4977752;28;20225;-74
2022/01/11 05:22:13;;;;;;;82.13;26.13;;;0.30;99.90;;;;;;4975950;28;20291;-74
2022/01/11 05:24:39;;;;;;;86.17;24.03;;;0.30;99.90;;;;;;4974381;28;20599;-76
2022/01/11 05:27:06;;;;;;;96.63;26.80;;;0.30;99.90;;;;;;4973909;28;20223;-76
2022/01/11 05:29:33;;;;;;;80.53;24.90;;;0.30;99.90;;;;;;4976064;28;20221;-75
2022/01/11 05:32:02;;;;;;;86.50;24.93;;;0.30;99.90;;;;;;4972689;28;20310;-75
2022/01/11 05:34:29;;;;;;;93.77;26.80;;;0.30;99.90;;;;;;4986691;28;20239;-76
2022/01/11 05:36:56;;;;;;;96.87;27.63;;;0.30;99.90;;;;;;4974114;28;20213;-75
2022/01/11 05:39:23;;;;;;;87.60;25.93;;;0.30;99.90;;;;;;4971566;28;20218;-74
2022/01/11 05:41:50;;;;;;;73.20;25.77;;;0.30;99.90;;;;;;4976758;28;20636;-75
2022/01/11 05:44:20;;;;;;;93.10;26.40;;;0.30;99.90;;;;;;4975874;28;20363;-76
2022/01/11 05:46:48;;;;;;;89.30;27.37;;;0.30;99.90;;;;;;4975965;28;20302;-75
2022/01/11 05:49:14;;;;;;;87.77;27.73;;;0.30;99.90;;;;;;4978137;28;20547;-75
2022/01/11 05:51:41;;;;;;;82.73;27.13;;;0.30;99.90;;;;;;4970328;28;20568;-75
2022/01/11 05:54:08;;;;;;;90.20;27.97;;;0.30;99.90;;;;;;4983398;28;20215;-75
2022/01/11 05:56:35;;;;;;;86.83;26.90;;;0.30;99.90;;;;;;4972955;28;20208;-75
2022/01/11 05:59:02;;;;;;;85.13;27.63;;;0.40;99.90;;;;;;4971606;28;20853;-75
2022/01/11 06:01:29;;;;;;;99.30;28.63;;;0.40;99.90;;;;;;4972993;28;20580;-76
2022/01/11 06:03:56;;;;;;;85.73;26.67;;;0.40;99.90;;;;;;4979441;28;20238;-76
2022/01/11 06:06:23;;;;;;;98.00;27.23;;;0.40;99.90;;;;;;4977390;28;20214;-76
2022/01/11 06:08:50;;;;;;;80.07;26.47;;;0.40;99.90;;;;;;4973188;28;20208;-76
2022/01/11 06:11:16;;;;;;;80.80;25.93;;;0.40;99.90;;;;;;4978390;28;20239;-76
2022/01/11 06:13:44;;;;;;;79.87;26.13;;;0.40;99.90;;;;;;4973264;28;20299;-76
2022/01/11 06:16:11;;;;;;;90.87;27.03;;;0.40;99.90;;;;;;4977748;28;20250;-76
2022/01/11 06:18:38;;;;;;;81.83;27.00;;;0.40;99.90;;;;;;4973172;28;20278;-76
2022/01/11 06:21:05;;;;;;;76.53;29.37;;;0.40;99.90;;;;;;4972139;28;20243;-75
2022/01/11 06:23:32;;;;;;;90.63;27.30;;;0.40;99.90;;;;;;4975894;28;20322;-76
2022/01/11 06:25:59;;;;;;;88.03;27.47;;;0.50;99.90;;;;;;4974443;28;20246;-75
2022/01/11 06:28:25;;;;;;;83.83;28.00;;;0.50;99.90;;;;;;4972077;28;20214;-75
2022/01/11 06:30:52;;;;;;;92.40;28.17;;;0.50;99.90;;;;;;4971072;28;20575;-76
2022/01/11 06:33:19;;;;;;;83.97;26.90;;;0.50;99.90;;;;;;4972804;28;20242;-75
2022/01/11 06:35:46;;;;;;;86.17;27.60;;;0.50;99.90;;;;;;4975943;28;20298;-76
2022/01/11 06:38:14;;;;;;;97.07;28.37;;;0.50;99.90;;;;;;4971914;28;20216;-76
2022/01/11 06:40:42;;;;;;;88.83;26.93;;;0.50;99.90;;;;;;4970809;28;20279;-76
2022/01/11 06:43:09;;;;;;;85.37;27.20;;;0.40;99.90;;;;;;4971954;28;20235;-76
2022/01/11 06:45:36;;;;;;;98.20;29.70;;;0.50;99.90;;;;;;4976018;28;20311;-76
2022/01/11 06:48:04;;;;;;;99.20;29.60;;;0.40;99.90;;;;;;4975121;28;20231;-76
2022/01/11 06:50:31;;;;;;;81.33;27.97;;;0.40;99.90;;;;;;4974103;28;20211;-76
2022/01/11 06:52:59;;;;;;;97.73;28.87;;;0.40;99.90;;;;;;4969724;28;20595;-75
2022/01/11 06:55:26;;;;;;;99.40;28.10;;;0.50;99.90;;;;;;4969672;28;20773;-75
2022/01/11 06:57:53;;;;;;;83.63;27.43;;;0.50;99.90;;;;;;4972082;28;20234;-75
2022/01/11 07:00:20;;;;;;;93.33;27.33;;;0.50;99.90;;;;;;4973059;28;20581;-75
2022/01/11 07:02:50;;;;;;;84.83;27.37;;;0.50;99.90;;;;;;4972550;28;20231;-75
2022/01/11 07:05:17;;;;;;;95.90;27.77;;;0.50;99.90;;;;;;4968365;28;20212;-75
2022/01/11 07:07:44;;;;;;;82.13;27.03;;;0.50;99.90;;;;;;4980806;28;20219;-76
2022/01/11 07:10:11;;;;;;;95.80;26.87;;;0.50;99.90;;;;;;4975833;28;20210;-76
2022/01/11 07:12:38;;;;;;;93.57;27.63;;;0.50;99.90;;;;;;4980431;28;20769;-76
2022/01/11 07:15:05;;;;;;;92.70;28.13;;;0.50;99.90;;;;;;4980703;28;20270;-75
2022/01/11 07:17:32;;;;;;;80.87;27.47;;;0.50;99.90;;;;;;4975490;28;20269;-75
2022/01/11 07:19:59;;;;;;;88.67;27.40;;;0.50;99.90;;;;;;4973521;28;20215;-75
2022/01/11 07:22:25;;;;;;;90.27;27.60;;;0.50;99.90;;;;;;4976495;28;20342;-75
2022/01/11 07:24:52;;;;;;;81.93;25.43;;;0.50;99.90;;;;;;4980218;28;20219;-75
2022/01/11 07:27:19;;;;;;;86.43;27.60;;;0.40;99.90;;;;;;4976173;28;20284;-75
2022/01/11 07:29:46;;;;;;;89.40;26.80;;;0.40;99.90;;;;;;4977116;28;20210;-75
2022/01/11 07:32:13;;;;;;;102.93;28.00;;;0.40;99.90;;;;;;4978379;28;20691;-77
2022/01/11 07:34:40;;;;;;;79.77;25.47;;;0.40;99.90;;;;;;4993187;28;20622;-76
2022/01/11 07:37:07;;;;;;;96.30;28.60;;;0.40;99.90;;;;;;4975778;28;20216;-76
2022/01/11 07:39:33;;;;;;;84.07;27.87;;;0.50;99.90;;;;;;4975729;28;20663;-76
2022/01/11 07:42:00;;;;;;;80.10;27.20;;;0.40;99.90;;;;;;4974802;28;20258;-76
2022/01/11 07:44:27;;;;;;;94.63;27.80;;;0.40;99.90;;;;;;4971777;28;20234;-76
2022/01/11 07:46:54;;;;;;;95.03;29.37;;;0.40;99.90;;;;;;4975039;28;20651;-76
2022/01/11 07:49:21;;;;;;;91.10;29.03;;;0.40;99.90;;;;;;4980926;28;20303;-75
2022/01/11 07:51:47;;;;;;;87.50;27.93;;;0.40;99.90;;;;;;4974477;28;20220;-75
2022/01/11 07:54:14;;;;;;;90.50;28.57;;;0.40;99.90;;;;;;4976545;28;20290;-76
2022/01/11 07:56:41;;;;;;;87.80;28.23;;;0.40;99.90;;;;;;4972691;28;20630;-76
2022/01/11 07:59:10;;;;;;;82.43;27.43;;;0.40;99.90;;;;;;4978578;28;20221;-76
2022/01/11 08:01:38;;;;;;;94.03;29.33;;;0.40;99.90;;;;;;4977088;28;20411;-76
2022/01/11 08:04:06;;;;;;;95.00;28.90;;;0.40;99.90;;;;;;4975046;28;20233;-76
2022/01/11 08:06:38;;;;;;;104.67;30.17;;;0.50;99.90;;;;;;4967511;28;20208;-75
2022/01/11 08:09:07;;;;;;;97.17;30.00;;;0.50;99.90;;;;;;4971642;28;20648;-76
2022/01/11 08:11:34;;;;;;;98.27;28.73;;;0.50;99.90;;;;;;4977501;28;20207;-74
2022/01/11 08:14:01;;;;;;;106.40;31.67;;;0.50;99.90;;;;;;4979034;28;20650;-76
2022/01/11 08:16:28;;;;;;;105.20;31.30;;;0.60;99.90;;;;;;4973067;28;20665;-76
2022/01/11 08:18:55;;;;;;;119.13;31.27;;;0.60;99.90;;;;;;4967063;28;20212;-75
2022/01/11 08:21:21;;;;;;;110.43;31.03;;;0.70;99.90;;;;;;4976662;28;20691;-76
2022/01/11 08:23:48;;;;;;;104.60;30.53;;;0.70;99.90;;;;;;4974786;28;20271;-74
2022/01/11 08:26:15;;;;;;;118.27;32.57;;;0.80;99.90;;;;;;4972882;28;20254;-75
2022/01/11 08:28:44;;;;;;;112.40;32.40;;;0.80;99.90;;;;;;4975720;28;20576;-75
2022/01/11 08:31:11;;;;;;;106.27;30.40;;;0.80;99.90;;;;;;4970679;28;20294;-75
2022/01/11 08:33:38;;;;;;;119.00;34.53;;;0.80;99.90;;;;;;4970904;28;20603;-74
2022/01/11 08:36:06;;;;;;;112.70;32.37;;;0.90;99.90;;;;;;4974579;28;20261;-76
2022/01/11 08:38:35;;;;;;;118.47;32.57;;;0.90;99.90;;;;;;4974480;28;20286;-76
2022/01/11 08:41:02;;;;;;;110.33;31.80;;;0.90;99.90;;;;;;4978044;28;20212;-75
2022/01/11 08:43:32;;;;;;;111.07;34.70;;;0.90;99.90;;;;;;4976089;28;20286;-75
2022/01/11 08:46:02;;;;;;;117.50;31.53;;;0.90;99.90;;;;;;4979156;28;20765;-75
2022/01/11 08:48:30;;;;;;;111.63;32.27;;;1.00;99.90;;;;;;4972821;28;20526;-75
2022/01/11 08:50:57;;;;;;;110.37;33.93;;;1.00;99.90;;;;;;4975483;28;20208;-74
2022/01/11 08:53:24;;;;;;;108.57;31.57;;;1.00;99.90;;;;;;4973576;28;20208;-74
2022/01/11 08:55:51;;;;;;;112.03;32.47;;;1.00;99.90;;;;;;4970814;28;20295;-75
2022/01/11 08:58:20;;;;;;;93.47;31.33;;;1.10;99.90;;;;;;4973130;28;20538;-74
2022/01/11 09:00:49;;;;;;;118.00;33.37;;;1.10;99.90;;;;;;4974051;28;20216;-74
2022/01/11 09:03:17;;;;;;;118.53;33.73;;;1.10;99.90;;;;;;4974011;28;20228;-74
2022/01/11 09:05:44;;;;;;;111.27;32.47;;;1.10;99.90;;;;;;4972930;28;20239;-73
2022/01/11 09:08:11;;;;;;;109.50;33.37;;;1.10;99.90;;;;;;4972217;28;20239;-76
2022/01/11 09:10:38;;;;;;;107.17;31.63;;;1.20;99.90;;;;;;4973112;28;20278;-75
2022/01/11 09:13:05;;;;;;;111.33;31.93;;;1.20;99.90;;;;;;4968253;28;20715;-74
2022/01/11 09:15:32;;;;;;;116.77;32.37;;;1.20;99.90;;;;;;4971739;28;20295;-74
2022/01/11 09:18:01;;;;;;;113.77;33.97;;;1.30;99.90;;;;;;4974041;28;20231;-75
2022/01/11 09:20:28;;;;;;;108.57;31.20;;;1.30;99.90;;;;;;4979308;28;20204;-75
2022/01/11 09:22:54;;;;;;;108.00;32.10;;;1.30;99.90;;;;;;4977217;28;20300;-74
2022/01/11 09:25:22;;;;;;;118.40;33.90;;;1.40;99.90;;;;;;4972620;28;20241;-75
2022/01/11 09:27:48;;;;;;;100.17;31.30;;;1.40;99.90;;;;;;4971320;28;20209;-73
2022/01/11 09:30:16;;;;;;;111.70;32.80;;;1.50;99.90;;;;;;4970338;28;20226;-75
2022/01/11 09:32:43;;;;;;;123.10;33.23;;;1.50;99.90;;;;;;4973720;28;20723;-75
2022/01/11 09:35:11;;;;;;;116.47;33.27;;;1.50;99.90;;;;;;4973456;28;20288;-74
2022/01/11 09:37:38;;;;;;;104.37;32.60;;;1.60;99.90;;;;;;4974925;28;20738;-74
2022/01/11 09:40:08;;;;;;;112.67;33.13;;;1.60;99.90;;;;;;4972641;28;20212;-74
2022/01/11 09:42:36;;;;;;;109.90;34.23;;;1.60;99.90;;;;;;4973146;28;20289;-74
2022/01/11 09:45:04;;;;;;;108.17;32.37;;;1.60;99.90;;;;;;4974046;28;20319;-76
2022/01/11 09:47:31;;;;;;;99.20;30.83;;;1.70;99.90;;;;;;4970422;28;20545;-75
2022/01/11 09:49:58;;;;;;;92.60;30.97;;;1.70;99.90;;;;;;4974996;28;20303;-75
2022/01/11 09:52:27;;;;;;;105.90;32.07;;;1.70;99.90;;;;;;4972263;28;20232;-74
2022/01/11 09:54:55;;;;;;;102.20;31.33;;;1.70;99.90;;;;;;4973122;28;20211;-73
2022/01/11 09:57:22;;;;;;;106.90;30.90;;;1.70;99.90;;;;;;4971323;28;20295;-74
2022/01/11 09:59:50;;;;;;;102.83;31.30;;;1.70;99.90;;;;;;4977340;28;20530;-74
2022/01/11 10:02:17;;;;;;;89.77;29.87;;;1.70;99.90;;;;;;4972008;28;20224;-75
2022/01/11 10:04:44;;;;;;;87.50;29.60;;;1.80;99.90;;;;;;4976005;28;20243;-73
2022/01/11 10:07:13;;;;;;;91.90;29.93;;;1.80;99.90;;;;;;4973395;28;20280;-74
2022/01/11 10:09:50;;;;;;;95.20;28.47;;;1.80;99.90;;;;;;4973946;28;20274;-73
2022/01/11 10:12:18;;;;;;;80.27;27.53;;;1.90;99.90;;;;;;4978504;28;20266;-72
2022/01/11 10:14:52;;;;;;;91.13;28.97;;;1.90;99.90;;;;;;4971248;28;20216;-74
2022/01/11 10:17:37;;;;;;;82.30;26.33;;;1.90;99.90;;;;;;4977332;28;20220;-74
2022/01/11 10:20:14;;;;;;;79.13;28.37;;;2.00;99.90;;;;;;4972771;28;20218;-75
2022/01/11 10:22:46;;;;;;;72.63;27.40;;;2.00;99.90;;;;;;4973030;28;20249;-74
2022/01/11 10:25:12;;;;;;;77.10;27.60;;;2.00;99.90;;;;;;4976290;28;20295;-74
2022/01/11 10:27:39;;;;;;;74.30;25.97;;;2.10;99.90;;;;;;4973133;28;20207;-74
2022/01/11 10:30:18;;;;;;;78.30;27.97;;;2.10;99.90;;;;;;4976041;28;20300;-75
2022/01/11 10:32:47;;;;;;;78.47;27.03;;;2.10;99.90;;;;;;4970453;28;20242;-74
2022/01/11 10:35:23;;;;;;;77.83;27.60;;;2.20;99.90;;;;;;4974633;28;20240;-73
2022/01/11 10:38:12;;;;;;;74.67;27.80;;;2.20;99.90;;;;;;4973938;28;20216;-73
2022/01/11 10:40:45;;;;;;;75.87;27.13;;;2.20;99.90;;;;;;4970804;28;20213;-75
2022/01/11 10:43:13;;;;;;;84.33;28.83;;;2.20;99.90;;;;;;4971554;28;20605;-73
2022/01/11 10:45:43;;;;;;;76.37;27.97;;;2.30;99.90;;;;;;4978005;28;20315;-74
2022/01/11 10:48:15;;;;;;;70.27;26.30;;;2.30;99.90;;;;;;4972444;28;20230;-73
2022/01/11 10:51:02;;;;;;;73.00;26.27;;;2.30;99.90;;;;;;4967265;28;20692;-74
2022/01/11 10:53:38;;;;;;;65.80;25.77;;;2.40;99.90;;;;;;4970747;28;20219;-73
2022/01/11 10:56:07;;;;;;;60.90;25.20;;;2.40;99.90;;;;;;4971490;28;20212;-73
2022/01/11 10:58:43;;;;;;;62.67;24.97;;;2.40;99.90;;;;;;4967247;28;20288;-73
2022/01/11 11:01:11;;;;;;;63.53;24.43;;;2.50;99.90;;;;;;4977748;28;20208;-73
2022/01/11 11:03:39;;;;;;;70.23;24.47;;;2.50;99.90;;;;;;4968770;28;20224;-73
2022/01/11 11:06:10;;;;;;;52.40;22.57;;;2.50;99.90;;;;;;4971649;28;20221;-74
2022/01/11 11:08:44;;;;;;;55.43;23.10;;;2.50;99.90;;;;;;4972860;28;20221;-74
2022/01/11 11:11:23;;;;;;;56.80;22.30;;;2.50;99.90;;;;;;4973999;28;20679;-74
2022/01/11 11:13:52;;;;;;;60.03;21.93;;;2.50;99.90;;;;;;4972665;28;20219;-75
2022/01/11 11:16:24;;;;;;;54.90;21.90;;;2.50;99.90;;;;;;4973094;28;20213;-75
2022/01/11 11:19:00;;;;;;;52.50;21.83;;;2.50;99.90;;;;;;4973927;28;20217;-75
2022/01/11 11:21:32;;;;;;;55.03;21.40;;;2.50;99.90;;;;;;4969064;28;20238;-75
2022/01/11 11:24:04;;;;;;;56.83;20.70;;;2.50;99.90;;;;;;4975176;28;20259;-75
2022/01/11 11:26:44;;;;;;;53.13;21.37;;;2.50;99.90;;;;;;4972729;28;20264;-75
2022/01/11 11:29:12;;;;;;;49.27;19.33;;;2.50;99.90;;;;;;4969477;28;20672;-74
2022/01/11 11:32:00;;;;;;;46.33;19.47;;;2.50;99.90;;;;;;4969976;28;20221;-74
2022/01/11 11:34:30;;;;;;;49.87;19.83;;;2.50;99.90;;;;;;4974969;28;20228;-75
2022/01/11 11:37:03;;;;;;;48.77;19.27;;;2.50;99.90;;;;;;4969988;28;20298;-75
2022/01/11 11:39:30;;;;;;;45.83;19.23;;;2.50;99.90;;;;;;4972977;28;20220;-74
2022/01/11 11:41:59;;;;;;;45.83;19.37;;;2.50;99.90;;;;;;4974770;28;20831;-74
2022/01/11 11:44:29;;;;;;;45.37;20.57;;;2.50;99.90;;;;;;4969090;28;20801;-75
2022/01/11 11:47:02;;;;;;;51.87;19.73;;;2.50;99.90;;;;;;4971219;28;20228;-75
2022/01/11 11:49:45;;;;;;;44.50;18.80;;;2.50;99.90;;;;;;4969300;28;20697;-74
2022/01/11 11:52:20;;;;;;;40.30;18.57;;;2.50;99.90;;;;;;4969168;28;20315;-74
2022/01/11 11:55:09;;;;;;;46.37;18.63;;;2.50;99.90;;;;;;4977768;28;20310;-74
2022/01/11 11:57:40;;;;;;;44.80;17.47;;;2.60;99.90;;;;;;4975032;28;20214;-76
2022/01/11 12:00:07;;;;;;;49.13;19.27;;;2.60;99.90;;;;;;4979637;28;20221;-75
2022/01/11 12:02:38;;;;;;;45.23;18.27;;;2.60;99.90;;;;;;4972314;28;20221;-75
2022/01/11 12:05:09;;;;;;;40.57;17.37;;;2.60;99.90;;;;;;4976380;28;20239;-76
2022/01/11 12:07:43;;;;;;;49.03;19.03;;;2.60;99.90;;;;;;4972109;28;20235;-74
2022/01/11 12:10:42;;;;;;;48.13;17.47;;;2.60;99.90;;;;;;4972517;28;20241;-74
2022/01/11 12:13:09;;;;;;;45.60;17.10;;;2.60;99.90;;;;;;4977612;28;20221;-74
2022/01/11 12:15:37;;;;;;;41.73;17.40;;;2.70;99.90;;;;;;4977435;28;20301;-74
2022/01/11 12:18:04;;;;;;;42.27;17.47;;;2.70;99.90;;;;;;4977690;28;20229;-75
2022/01/11 12:20:44;;;;;;;41.33;15.80;;;2.70;99.90;;;;;;4971548;28;20327;-75
2022/01/11 12:23:13;;;;;;;39.87;15.80;;;2.70;99.90;;;;;;4977908;28;20673;-75
2022/01/11 12:25:43;;;;;;;40.50;16.40;;;2.80;99.90;;;;;;4977324;28;20345;-74
2022/01/11 12:28:21;;;;;;;43.43;18.50;;;2.80;99.90;;;;;;4975465;28;20299;-75
2022/01/11 12:30:48;;;;;;;40.03;16.53;;;2.80;99.90;;;;;;4992200;28;20678;-75
2022/01/11 12:33:18;;;;;;;38.60;16.50;;;2.80;99.90;;;;;;4973729;28;20643;-74
2022/01/11 12:36:04;;;;;;;41.53;16.90;;;2.80;99.90;;;;;;4971713;28;20270;-75
2022/01/11 12:38:33;;;;;;;44.93;17.03;;;2.90;99.90;;;;;;4974532;28;20312;-75
2022/01/11 12:41:33;;;;;;;39.80;16.53;;;2.90;99.90;;;;;;4977713;28;20651;-74
2022/01/11 12:45:35;;;;;;;42.40;17.17;;;2.90;99.90;;;;;;4972664;28;20299;-76
2022/01/11 12:47:38;;;;;;;43.37;18.03;;;2.90;99.90;;;;;;4962361;28;20232;-75